sensor_id;sensor_type;location;lat;lon;timestamp;P1;durP1;ratioP1;P2;durP2;ratioP2
24443;SDS011;13346;50.984;5.822;2023-04-01T00:01:53;2.23;;;1.23;;
24443;SDS011;13346;50.984;5.822;2023-04-01T00:04:20;3.23;;;1.30;;
24443;SDS011;13346;50.984;5.822;2023-04-01T00:06:47;1.90;;;1.50;;
24443;SDS011;13346;50.984;5.822;2023-04-01T00:09:14;1.73;;;0.90;;
24443;SDS011;13346;50.984;5.822;2023-04-01T00:11:41;3.10;;;1.40;;
24443;SDS011;13346;50.984;5.822;2023-04-01T00:14:09;1.37;;;1.23;;
24443;SDS011;13346;50.984;5.822;2023-04-01T00:16:36;1.37;;;1.13;;
24443;SDS011;13346;50.984;5.822;2023-04-01T00:19:05;2.33;;;0.70;;
24443;SDS011;13346;50.984;5.822;2023-04-01T00:21:33;3.17;;;1.33;;
24443;SDS011;13346;50.984;5.822;2023-04-01T00:24:00;2.30;;;1.00;;
24443;SDS011;13346;50.984;5.822;2023-04-01T00:26:27;5.47;;;1.83;;
24443;SDS011;13346;50.984;5.822;2023-04-01T00:28:54;1.30;;;1.17;;
24443;SDS011;13346;50.984;5.822;2023-04-01T00:31:21;0.73;;;0.70;;
24443;SDS011;13346;50.984;5.822;2023-04-01T00:33:48;2.20;;;1.00;;
24443;SDS011;13346;50.984;5.822;2023-04-01T00:36:19;3.20;;;0.77;;
24443;SDS011;13346;50.984;5.822;2023-04-01T00:38:48;3.07;;;1.33;;
24443;SDS011;13346;50.984;5.822;2023-04-01T00:41:16;0.93;;;0.80;;
24443;SDS011;13346;50.984;5.822;2023-04-01T00:43:44;1.87;;;1.10;;
24443;SDS011;13346;50.984;5.822;2023-04-01T00:46:13;1.47;;;0.70;;
24443;SDS011;13346;50.984;5.822;2023-04-01T00:48:41;1.60;;;1.30;;
24443;SDS011;13346;50.984;5.822;2023-04-01T00:51:11;1.17;;;1.03;;
24443;SDS011;13346;50.984;5.822;2023-04-01T00:53:43;0.80;;;0.70;;
24443;SDS011;13346;50.984;5.822;2023-04-01T00:56:14;0.57;;;0.57;;
24443;SDS011;13346;50.984;5.822;2023-04-01T00:58:44;2.20;;;0.83;;
24443;SDS011;13346;50.984;5.822;2023-04-01T01:01:15;0.40;;;0.40;;
24443;SDS011;13346;50.984;5.822;2023-04-01T01:03:42;16.43;;;1.20;;
24443;SDS011;13346;50.984;5.822;2023-04-01T01:06:10;1.20;;;1.10;;
24443;SDS011;13346;50.984;5.822;2023-04-01T01:09:02;4.67;;;0.97;;
24443;SDS011;13346;50.984;5.822;2023-04-01T01:11:40;3.80;;;1.73;;
24443;SDS011;13346;50.984;5.822;2023-04-01T01:14:21;1.17;;;1.07;;
24443;SDS011;13346;50.984;5.822;2023-04-01T01:16:58;0.87;;;0.83;;
24443;SDS011;13346;50.984;5.822;2023-04-01T01:19:36;1.33;;;0.77;;
24443;SDS011;13346;50.984;5.822;2023-04-01T01:22:32;0.70;;;0.70;;
24443;SDS011;13346;50.984;5.822;2023-04-01T01:25:17;1.97;;;1.20;;
24443;SDS011;13346;50.984;5.822;2023-04-01T01:27:58;0.87;;;0.70;;
24443;SDS011;13346;50.984;5.822;2023-04-01T01:30:40;2.60;;;0.90;;
24443;SDS011;13346;50.984;5.822;2023-04-01T01:36:18;0.80;;;0.80;;
24443;SDS011;13346;50.984;5.822;2023-04-01T01:38:47;1.27;;;0.73;;
24443;SDS011;13346;50.984;5.822;2023-04-01T01:41:16;1.03;;;1.03;;
24443;SDS011;13346;50.984;5.822;2023-04-01T01:43:46;1.70;;;1.10;;
24443;SDS011;13346;50.984;5.822;2023-04-01T01:46:17;1.53;;;0.73;;
24443;SDS011;13346;50.984;5.822;2023-04-01T01:48:47;0.50;;;0.50;;
24443;SDS011;13346;50.984;5.822;2023-04-01T01:51:16;0.83;;;0.83;;
24443;SDS011;13346;50.984;5.822;2023-04-01T01:53:46;1.47;;;0.70;;
24443;SDS011;13346;50.984;5.822;2023-04-01T01:56:13;1.23;;;0.90;;
24443;SDS011;13346;50.984;5.822;2023-04-01T01:58:43;1.27;;;0.73;;
24443;SDS011;13346;50.984;5.822;2023-04-01T02:01:12;1.20;;;1.00;;
24443;SDS011;13346;50.984;5.822;2023-04-01T02:03:42;0.30;;;0.30;;
24443;SDS011;13346;50.984;5.822;2023-04-01T02:06:13;1.30;;;1.20;;
24443;SDS011;13346;50.984;5.822;2023-04-01T02:08:44;2.30;;;1.10;;
24443;SDS011;13346;50.984;5.822;2023-04-01T02:11:16;2.73;;;0.57;;
24443;SDS011;13346;50.984;5.822;2023-04-01T02:13:45;0.97;;;0.60;;
24443;SDS011;13346;50.984;5.822;2023-04-01T02:16:17;0.50;;;0.50;;
24443;SDS011;13346;50.984;5.822;2023-04-01T02:18:49;0.57;;;0.57;;
24443;SDS011;13346;50.984;5.822;2023-04-01T02:21:20;2.00;;;0.73;;
24443;SDS011;13346;50.984;5.822;2023-04-01T02:23:52;1.00;;;1.00;;
24443;SDS011;13346;50.984;5.822;2023-04-01T02:26:21;0.70;;;0.60;;
24443;SDS011;13346;50.984;5.822;2023-04-01T02:28:51;1.23;;;0.53;;
24443;SDS011;13346;50.984;5.822;2023-04-01T02:31:20;0.40;;;0.40;;
24443;SDS011;13346;50.984;5.822;2023-04-01T02:33:48;3.70;;;1.77;;
24443;SDS011;13346;50.984;5.822;2023-04-01T02:36:16;1.27;;;1.20;;
24443;SDS011;13346;50.984;5.822;2023-04-01T02:38:44;0.50;;;0.50;;
24443;SDS011;13346;50.984;5.822;2023-04-01T02:41:14;1.23;;;0.70;;
24443;SDS011;13346;50.984;5.822;2023-04-01T02:43:41;1.63;;;0.80;;
24443;SDS011;13346;50.984;5.822;2023-04-01T02:46:08;1.70;;;0.90;;
24443;SDS011;13346;50.984;5.822;2023-04-01T02:48:35;1.80;;;0.50;;
24443;SDS011;13346;50.984;5.822;2023-04-01T02:51:02;0.60;;;0.60;;
24443;SDS011;13346;50.984;5.822;2023-04-01T02:53:30;0.70;;;0.70;;
24443;SDS011;13346;50.984;5.822;2023-04-01T02:55:57;0.40;;;0.40;;
24443;SDS011;13346;50.984;5.822;2023-04-01T02:58:25;0.80;;;0.80;;
24443;SDS011;13346;50.984;5.822;2023-04-01T03:00:52;1.43;;;0.60;;
24443;SDS011;13346;50.984;5.822;2023-04-01T03:03:20;0.50;;;0.50;;
24443;SDS011;13346;50.984;5.822;2023-04-01T03:05:47;0.40;;;0.40;;
24443;SDS011;13346;50.984;5.822;2023-04-01T03:08:14;0.73;;;0.67;;
24443;SDS011;13346;50.984;5.822;2023-04-01T03:10:41;0.30;;;0.30;;
24443;SDS011;13346;50.984;5.822;2023-04-01T03:13:08;2.10;;;0.57;;
24443;SDS011;13346;50.984;5.822;2023-04-01T03:15:37;0.23;;;0.23;;
24443;SDS011;13346;50.984;5.822;2023-04-01T03:18:04;1.07;;;0.37;;
24443;SDS011;13346;50.984;5.822;2023-04-01T03:20:31;0.40;;;0.40;;
24443;SDS011;13346;50.984;5.822;2023-04-01T03:22:58;1.43;;;0.70;;
24443;SDS011;13346;50.984;5.822;2023-04-01T03:25:25;0.47;;;0.47;;
24443;SDS011;13346;50.984;5.822;2023-04-01T03:27:53;0.50;;;0.40;;
24443;SDS011;13346;50.984;5.822;2023-04-01T03:30:20;0.70;;;0.40;;
24443;SDS011;13346;50.984;5.822;2023-04-01T03:32:49;1.10;;;1.00;;
24443;SDS011;13346;50.984;5.822;2023-04-01T03:35:16;0.40;;;0.40;;
24443;SDS011;13346;50.984;5.822;2023-04-01T03:37:43;0.90;;;0.90;;
24443;SDS011;13346;50.984;5.822;2023-04-01T03:40:11;1.23;;;0.77;;
24443;SDS011;13346;50.984;5.822;2023-04-01T03:42:38;0.70;;;0.70;;
24443;SDS011;13346;50.984;5.822;2023-04-01T03:45:06;0.80;;;0.80;;
24443;SDS011;13346;50.984;5.822;2023-04-01T03:47:34;0.90;;;0.90;;
24443;SDS011;13346;50.984;5.822;2023-04-01T03:50:03;0.80;;;0.80;;
24443;SDS011;13346;50.984;5.822;2023-04-01T03:52:31;1.10;;;1.10;;
24443;SDS011;13346;50.984;5.822;2023-04-01T03:55:02;1.27;;;0.90;;
24443;SDS011;13346;50.984;5.822;2023-04-01T03:57:30;1.03;;;1.03;;
24443;SDS011;13346;50.984;5.822;2023-04-01T03:59:57;1.23;;;1.23;;
24443;SDS011;13346;50.984;5.822;2023-04-01T04:02:24;3.30;;;1.60;;
24443;SDS011;13346;50.984;5.822;2023-04-01T04:04:52;1.30;;;0.80;;
24443;SDS011;13346;50.984;5.822;2023-04-01T04:07:20;1.17;;;0.60;;
24443;SDS011;13346;50.984;5.822;2023-04-01T04:09:47;1.53;;;1.00;;
24443;SDS011;13346;50.984;5.822;2023-04-01T04:12:14;1.23;;;1.13;;
24443;SDS011;13346;50.984;5.822;2023-04-01T04:14:42;2.03;;;0.60;;
24443;SDS011;13346;50.984;5.822;2023-04-01T04:17:09;0.67;;;0.67;;
24443;SDS011;13346;50.984;5.822;2023-04-01T04:19:41;0.80;;;0.80;;
24443;SDS011;13346;50.984;5.822;2023-04-01T04:22:08;2.20;;;1.00;;
24443;SDS011;13346;50.984;5.822;2023-04-01T04:24:37;0.97;;;0.87;;
24443;SDS011;13346;50.984;5.822;2023-04-01T04:27:05;1.20;;;1.10;;
24443;SDS011;13346;50.984;5.822;2023-04-01T04:29:32;0.80;;;0.80;;
24443;SDS011;13346;50.984;5.822;2023-04-01T04:31:59;1.60;;;1.50;;
24443;SDS011;13346;50.984;5.822;2023-04-01T04:34:26;1.10;;;1.10;;
24443;SDS011;13346;50.984;5.822;2023-04-01T04:36:53;1.73;;;1.40;;
24443;SDS011;13346;50.984;5.822;2023-04-01T04:39:20;1.60;;;1.50;;
24443;SDS011;13346;50.984;5.822;2023-04-01T04:41:49;2.00;;;1.20;;
24443;SDS011;13346;50.984;5.822;2023-04-01T04:44:16;2.30;;;1.70;;
24443;SDS011;13346;50.984;5.822;2023-04-01T04:46:43;1.67;;;1.63;;
24443;SDS011;13346;50.984;5.822;2023-04-01T04:49:11;1.77;;;1.53;;
24443;SDS011;13346;50.984;5.822;2023-04-01T04:51:38;1.50;;;1.40;;
24443;SDS011;13346;50.984;5.822;2023-04-01T04:54:05;1.13;;;0.93;;
24443;SDS011;13346;50.984;5.822;2023-04-01T04:56:33;1.70;;;1.37;;
24443;SDS011;13346;50.984;5.822;2023-04-01T04:59:02;1.17;;;1.07;;
24443;SDS011;13346;50.984;5.822;2023-04-01T05:01:29;1.57;;;1.40;;
24443;SDS011;13346;50.984;5.822;2023-04-01T05:03:58;1.43;;;1.20;;
24443;SDS011;13346;50.984;5.822;2023-04-01T05:06:25;3.60;;;1.10;;
24443;SDS011;13346;50.984;5.822;2023-04-01T05:08:54;1.10;;;1.10;;
24443;SDS011;13346;50.984;5.822;2023-04-01T05:11:22;0.80;;;0.80;;
24443;SDS011;13346;50.984;5.822;2023-04-01T05:13:51;0.70;;;0.70;;
24443;SDS011;13346;50.984;5.822;2023-04-01T05:16:20;0.97;;;0.97;;
24443;SDS011;13346;50.984;5.822;2023-04-01T05:18:47;1.50;;;1.40;;
24443;SDS011;13346;50.984;5.822;2023-04-01T05:21:14;1.10;;;1.10;;
24443;SDS011;13346;50.984;5.822;2023-04-01T05:23:42;1.33;;;1.00;;
24443;SDS011;13346;50.984;5.822;2023-04-01T05:26:10;1.60;;;1.40;;
24443;SDS011;13346;50.984;5.822;2023-04-01T05:28:38;1.30;;;1.30;;
24443;SDS011;13346;50.984;5.822;2023-04-01T05:31:06;1.43;;;1.37;;
24443;SDS011;13346;50.984;5.822;2023-04-01T05:33:35;1.73;;;1.63;;
24443;SDS011;13346;50.984;5.822;2023-04-01T05:36:06;5.13;;;1.77;;
24443;SDS011;13346;50.984;5.822;2023-04-01T05:38:34;2.63;;;1.13;;
24443;SDS011;13346;50.984;5.822;2023-04-01T05:41:02;1.87;;;1.77;;
24443;SDS011;13346;50.984;5.822;2023-04-01T05:43:29;2.47;;;1.60;;
24443;SDS011;13346;50.984;5.822;2023-04-01T05:45:57;3.43;;;2.20;;
24443;SDS011;13346;50.984;5.822;2023-04-01T05:48:24;2.97;;;1.83;;
24443;SDS011;13346;50.984;5.822;2023-04-01T05:50:52;3.53;;;2.17;;
24443;SDS011;13346;50.984;5.822;2023-04-01T05:53:20;2.17;;;1.80;;
24443;SDS011;13346;50.984;5.822;2023-04-01T05:55:47;2.77;;;2.07;;
24443;SDS011;13346;50.984;5.822;2023-04-01T05:58:14;2.63;;;2.03;;
24443;SDS011;13346;50.984;5.822;2023-04-01T06:00:41;1.60;;;1.50;;
24443;SDS011;13346;50.984;5.822;2023-04-01T06:03:08;3.57;;;2.80;;
24443;SDS011;13346;50.984;5.822;2023-04-01T06:05:38;2.70;;;2.60;;
24443;SDS011;13346;50.984;5.822;2023-04-01T06:08:11;2.73;;;2.53;;
24443;SDS011;13346;50.984;5.822;2023-04-01T06:10:49;3.47;;;2.47;;
24443;SDS011;13346;50.984;5.822;2023-04-01T06:13:31;5.27;;;2.80;;
